Time;durP1;ratioP1;P1;durP2;ratioP2;P2;SDS_P1;SDS_P2;PMS_P1;PMS_P2;Temp;Humidity;BMP_temperature;BMP_pressure;BME280_temperature;BME280_humidity;BME280_pressure;Samples;Min_cycle;Max_cycle;Signal;HPM_P1;HPM_P2
2022/02/21 00:02:26;;;;;;;20.33;8.75;;;;;;;5.67;100.00;95048.53;5062546;28;20098;-48
2022/02/21 00:04:52;;;;;;;27.60;11.10;;;;;;;5.61;100.00;95049.31;5060110;28;20433;-45
2022/02/21 00:07:19;;;;;;;24.45;10.65;;;;;;;5.55;100.00;95048.28;5061337;28;20040;-46
2022/02/21 00:09:46;;;;;;;23.50;10.38;;;;;;;5.50;100.00;95043.69;5063301;28;20090;-47
2022/02/21 00:12:14;;;;;;;28.00;10.90;;;;;;;5.43;100.00;95037.72;5060416;28;20080;-47
2022/02/21 00:14:41;;;;;;;19.50;8.23;;;;;;;5.43;100.00;95035.13;5063936;28;20052;-46
2022/02/21 00:17:08;;;;;;;27.73;11.43;;;;;;;5.41;100.00;95024.19;5063764;28;20464;-47
2022/02/21 00:19:34;;;;;;;17.23;7.13;;;;;;;5.40;100.00;95032.13;5062211;28;20473;-47
2022/02/21 00:22:01;;;;;;;15.95;7.00;;;;;;;5.35;100.00;95040.47;5063108;28;20049;-46
2022/02/21 00:24:28;;;;;;;21.52;7.07;;;;;;;5.32;100.00;95040.84;5062980;28;20041;-45
2022/02/21 00:26:55;;;;;;;16.02;7.05;;;;;;;5.30;100.00;95037.66;5062711;28;20110;-46
2022/02/21 00:29:22;;;;;;;18.77;7.38;;;;;;;5.25;100.00;95024.53;5061863;28;20049;-49
2022/02/21 00:31:49;;;;;;;11.27;5.85;;;;;;;5.22;100.00;95019.75;5062851;28;20041;-47
2022/02/21 00:34:15;;;;;;;14.40;7.18;;;;;;;5.27;100.00;95017.38;5060953;28;20508;-45
2022/02/21 00:36:42;;;;;;;14.82;7.07;;;;;;;5.31;100.00;95016.00;5061885;28;20514;-45
2022/02/21 00:39:10;;;;;;;19.58;7.97;;;;;;;5.30;100.00;95012.63;5061974;28;20044;-47
2022/02/21 00:41:36;;;;;;;14.85;7.50;;;;;;;5.29;100.00;95005.88;5062120;28;20045;-45
2022/02/21 00:44:04;;;;;;;18.23;7.30;;;;;;;5.28;100.00;95006.09;5061521;28;20625;-48
2022/02/21 00:46:31;;;;;;;17.85;8.82;;;;;;;5.27;100.00;95007.06;5061709;28;20047;-46
2022/02/21 00:48:57;;;;;;;16.45;7.75;;;;;;;5.29;100.00;95011.03;5061574;28;20120;-45
2022/02/21 00:51:24;;;;;;;23.45;8.65;;;;;;;5.27;100.00;95001.91;5062605;28;20040;-48
2022/02/21 00:53:51;;;;;;;17.30;7.35;;;;;;;5.32;100.00;95009.88;5063033;28;20051;-51
2022/02/21 00:56:18;;;;;;;15.13;7.82;;;;;;;5.33;100.00;95006.28;5060319;28;20064;-47
2022/02/21 00:58:45;;;;;;;18.33;8.00;;;;;;;5.27;100.00;94996.72;5059512;28;20044;-45
2022/02/21 01:01:11;;;;;;;13.60;7.03;;;;;;;5.26;100.00;94990.00;5062178;28;20110;-46
2022/02/21 01:03:38;;;;;;;14.20;7.07;;;;;;;5.22;100.00;94988.75;5061730;28;20122;-45
2022/02/21 01:06:06;;;;;;;16.58;7.15;;;;;;;5.11;100.00;94983.19;5055274;28;20058;-45
2022/02/21 01:08:33;;;;;;;16.10;7.93;;;;;;;5.17;100.00;94987.56;5061140;28;20123;-46
2022/02/21 01:11:00;;;;;;;14.23;7.55;;;;;;;5.18;100.00;94988.34;5060947;28;20529;-47
2022/02/21 01:13:26;;;;;;;16.77;7.40;;;;;;;5.16;100.00;94985.94;5047808;28;20109;-48
2022/02/21 01:15:53;;;;;;;16.67;8.40;;;;;;;5.11;100.00;94990.09;5062791;28;20044;-46
2022/02/21 01:18:21;;;;;;;21.02;8.73;;;;;;;5.10;100.00;94980.78;5060407;28;20044;-47
2022/02/21 01:20:48;;;;;;;14.27;7.00;;;;;;;5.04;100.00;94972.03;5059575;28;20048;-46
2022/02/21 01:23:15;;;;;;;17.30;8.57;;;;;;;5.07;100.00;94976.78;5062222;28;20070;-47
2022/02/21 01:25:42;;;;;;;11.25;6.53;;;;;;;5.03;100.00;94982.53;5062231;28;20044;-50
2022/02/21 01:28:09;;;;;;;13.60;6.78;;;;;;;4.97;100.00;94976.38;5062080;28;20728;-46
2022/02/21 01:30:36;;;;;;;15.70;7.82;;;;;;;4.86;100.00;94969.16;5060721;28;20048;-45
2022/02/21 01:33:02;;;;;;;20.02;7.75;;;;;;;4.77;100.00;94959.00;5060495;28;20051;-46
2022/02/21 01:35:29;;;;;;;15.07;7.45;;;;;;;4.65;100.00;94952.78;5061321;28;20055;-46
2022/02/21 01:37:56;;;;;;;14.00;7.30;;;;;;;4.68;100.00;94967.88;5060671;28;20033;-49
2022/02/21 01:40:23;;;;;;;15.75;7.28;;;;;;;4.72;100.00;94969.09;5061207;28;20105;-45
2022/02/21 01:42:50;;;;;;;13.85;7.72;;;;;;;4.66;100.00;94967.25;5061620;28;20062;-46
2022/02/21 01:45:17;;;;;;;13.95;7.43;;;;;;;4.67;100.00;94968.06;5060748;28;20414;-49
2022/02/21 01:47:43;;;;;;;16.33;7.85;;;;;;;4.62;100.00;94973.78;5060227;28;20047;-45
2022/02/21 01:50:10;;;;;;;18.42;7.38;;;;;;;4.62;100.00;94966.06;5060122;28;20044;-45
2022/02/21 01:52:38;;;;;;;16.10;8.32;;;;;;;4.62;100.00;94958.31;5058990;28;20040;-47
2022/02/21 01:55:05;;;;;;;17.58;8.20;;;;;;;4.57;100.00;94956.31;5059508;28;20052;-47
2022/02/21 01:57:33;;;;;;;19.83;8.35;;;;;;;4.54;100.00;94955.91;5061473;28;20533;-46
2022/02/21 02:00:02;;;;;;;16.33;8.60;;;;;;;4.47;100.00;94952.50;5060948;28;20571;-46
2022/02/21 02:02:43;;;;;;;16.95;8.30;;;;;;;4.40;100.00;94940.34;5060819;28;20119;-47
2022/02/21 02:05:10;;;;;;;15.02;7.53;;;;;;;4.32;100.00;94937.94;5059972;28;20569;-47
2022/02/21 02:07:37;;;;;;;21.25;8.35;;;;;;;4.22;100.00;94934.88;5056355;28;20045;-46
2022/02/21 02:10:04;;;;;;;15.63;8.27;;;;;;;4.12;100.00;94927.44;5059557;28;20044;-45
2022/02/21 02:12:31;;;;;;;21.75;10.90;;;;;;;4.05;100.00;94925.81;5060543;28;20090;-46
2022/02/21 02:14:58;;;;;;;18.98;10.45;;;;;;;4.01;100.00;94926.19;5060987;28;20102;-46
2022/02/21 02:17:24;;;;;;;23.80;8.60;;;;;;;3.94;100.00;94920.22;5059132;28;20044;-45
2022/02/21 02:19:52;;;;;;;15.52;8.00;;;;;;;3.90;100.00;94913.81;5060160;28;20037;-45
2022/02/21 02:22:21;;;;;;;15.63;8.13;;;;;;;3.83;100.00;94910.41;5060817;28;20040;-46
2022/02/21 02:24:53;;;;;;;20.58;7.85;;;;;;;3.81;100.00;94908.00;5058721;28;20044;-45
2022/02/21 02:27:22;;;;;;;21.08;7.85;;;;;;;3.75;100.00;94900.25;5058810;28;20036;-46
2022/02/21 02:29:54;;;;;;;16.05;7.25;;;;;;;3.68;100.00;94907.13;5060683;28;20103;-46
2022/02/21 02:32:22;;;;;;;13.13;7.13;;;;;;;3.58;100.00;94910.81;5060635;28;20080;-46
2022/02/21 02:34:49;;;;;;;15.30;7.82;;;;;;;3.46;100.00;94912.28;5060399;28;20456;-45
2022/02/21 02:37:20;;;;;;;21.48;9.98;;;;;;;3.16;100.00;94917.53;5060293;28;20036;-46
2022/02/21 02:39:47;;;;;;;14.55;7.75;;;;;;;3.00;100.00;94917.75;5059438;28;20117;-47
2022/02/21 02:42:14;;;;;;;12.55;7.68;;;;;;;2.86;100.00;94922.78;5060188;28;20040;-48
2022/02/21 02:44:41;;;;;;;15.40;6.68;;;;;;;2.66;100.00;94896.78;5060004;28;20098;-45
2022/02/21 02:47:10;;;;;;;13.07;6.75;;;;;;;2.71;100.00;94914.25;5059961;28;20070;-45
2022/02/21 02:49:38;;;;;;;14.18;6.75;;;;;;;2.69;100.00;94916.22;5059730;28;20048;-46
2022/02/21 02:52:06;;;;;;;14.15;7.00;;;;;;;2.73;100.00;94917.44;5059543;28;20040;-46
2022/02/21 02:54:33;;;;;;;15.80;6.47;;;;;;;2.66;100.00;94916.56;5059743;28;20040;-46
2022/02/21 02:57:00;;;;;;;18.85;6.97;;;;;;;2.64;100.00;94913.38;5059550;28;20049;-46
2022/02/21 02:59:27;;;;;;;12.80;7.18;;;;;;;2.64;100.00;94908.25;5060551;28;20064;-45
2022/02/21 03:01:55;;;;;;;17.10;7.72;;;;;;;2.53;100.00;94911.28;5060429;28;20044;-45
2022/02/21 03:04:21;;;;;;;20.75;9.32;;;;;;;2.56;100.00;94910.94;5060055;28;20121;-47
2022/02/21 03:06:48;;;;;;;16.55;8.25;;;;;;;2.54;100.00;94907.72;5053435;28;20044;-48
2022/02/21 03:09:15;;;;;;;18.67;8.77;;;;;;;2.55;100.00;94904.19;5060902;28;20048;-47
2022/02/21 03:11:42;;;;;;;20.45;9.23;;;;;;;2.53;100.00;94906.13;5061173;28;20044;-46
2022/02/21 03:14:10;;;;;;;19.13;9.65;;;;;;;2.54;100.00;94900.81;5059590;28;20043;-45
2022/02/21 03:16:37;;;;;;;26.15;10.27;;;;;;;2.53;100.00;94911.28;5058417;28;20044;-50
2022/02/21 03:19:04;;;;;;;15.32;9.15;;;;;;;2.50;100.00;94899.56;5060612;28;20036;-45
2022/02/21 03:21:31;;;;;;;24.13;9.43;;;;;;;2.48;100.00;94899.75;5060124;28;20044;-46
2022/02/21 03:23:58;;;;;;;19.35;9.55;;;;;;;2.38;100.00;94891.50;5060669;28;20041;-45
2022/02/21 03:26:25;;;;;;;16.02;8.57;;;;;;;2.44;100.00;94903.66;5059107;28;20514;-45
2022/02/21 03:28:51;;;;;;;19.90;9.20;;;;;;;2.45;100.00;94899.31;5060530;28;20064;-45
2022/02/21 03:31:18;;;;;;;17.58;10.38;;;;;;;2.37;100.00;94897.63;5063608;28;20098;-46
2022/02/21 03:33:45;;;;;;;21.77;9.52;;;;;;;2.30;100.00;94901.88;5062491;28;20509;-48
2022/02/21 03:36:12;;;;;;;24.17;10.75;;;;;;;2.19;100.00;94876.63;5063384;28;20036;-47
2022/02/21 03:38:39;;;;;;;23.88;10.38;;;;;;;2.27;100.00;94886.84;5062437;28;20056;-45
2022/02/21 03:41:06;;;;;;;21.58;10.52;;;;;;;2.26;100.00;94890.38;5062492;28;20494;-46
2022/02/21 03:43:32;;;;;;;19.40;10.25;;;;;;;2.28;100.00;94898.69;5062518;28;20140;-48
2022/02/21 03:45:59;;;;;;;23.98;10.25;;;;;;;2.30;100.00;94894.16;5063993;28;20078;-45
2022/02/21 03:48:26;;;;;;;25.17;10.65;;;;;;;2.29;100.00;94890.81;5062245;28;20040;-46
2022/02/21 03:50:53;;;;;;;18.23;10.15;;;;;;;2.25;100.00;94893.91;5063484;28;20475;-46
2022/02/21 03:53:19;;;;;;;22.90;10.88;;;;;;;2.24;100.00;94893.09;5063904;28;20044;-47
2022/02/21 03:55:46;;;;;;;17.08;10.20;;;;;;;2.22;100.00;94889.91;5063916;28;20421;-45
2022/02/21 03:58:13;;;;;;;23.65;12.70;;;;;;;2.22;100.00;94896.84;5063567;28;20098;-46
2022/02/21 04:00:40;;;;;;;22.35;9.82;;;;;;;2.10;100.00;94886.97;5063279;28;20040;-45
2022/02/21 04:03:07;;;;;;;18.50;10.35;;;;;;;2.16;100.00;94889.81;5063144;28;20569;-45
2022/02/21 04:05:33;;;;;;;25.75;11.30;;;;;;;2.15;100.00;94883.91;5061487;28;20540;-50
2022/02/21 04:08:00;;;;;;;21.00;11.50;;;;;;;2.12;100.00;94888.59;5057862;28;20069;-47
2022/02/21 04:10:27;;;;;;;25.40;12.90;;;;;;;2.17;100.00;94886.28;5062687;28;20071;-48
2022/02/21 04:12:54;;;;;;;23.20;11.90;;;;;;;2.14;100.00;94876.34;5061509;28;20060;-47
2022/02/21 04:15:21;;;;;;;34.92;13.55;;;;;;;2.22;100.00;94878.84;5062820;28;20063;-46
2022/02/21 04:17:49;;;;;;;30.42;14.73;;;;;;;2.24;100.00;94871.75;5060205;28;20060;-46
2022/02/21 04:20:22;;;;;;;34.97;13.55;;;;;;;2.22;100.00;94861.66;5060095;28;20118;-46
2022/02/21 04:22:50;;;;;;;35.65;15.82;;;;;;;2.20;100.00;94860.25;5060713;28;20114;-46
2022/02/21 04:25:16;;;;;;;28.77;12.80;;;;;;;2.19;100.00;94858.63;5061239;28;20097;-48
2022/02/21 04:27:52;;;;;;;32.33;15.15;;;;;;;2.18;100.00;94851.88;5060984;28;20040;-46
2022/02/21 04:30:25;;;;;;;23.50;12.18;;;;;;;2.16;100.00;94848.72;5060893;28;20638;-49
2022/02/21 04:32:52;;;;;;;25.95;12.32;;;;;;;2.13;100.00;94849.09;5061776;28;20055;-46
2022/02/21 04:35:21;;;;;;;27.00;13.27;;;;;;;2.17;100.00;94855.47;5061507;28;20101;-48
2022/02/21 04:37:48;;;;;;;22.67;13.02;;;;;;;2.17;100.00;94861.38;5061888;28;20032;-46
2022/02/21 04:40:18;;;;;;;28.58;16.85;;;;;;;2.23;100.00;94859.88;5062553;28;20498;-48
2022/02/21 04:42:48;;;;;;;37.78;21.27;;;;;;;2.27;100.00;94853.41;5062663;28;20451;-46
2022/02/21 04:45:15;;;;;;;49.90;27.25;;;;;;;2.32;100.00;94845.94;5062727;28;20526;-48
2022/02/21 04:47:42;;;;;;;65.18;34.90;;;;;;;2.34;100.00;94851.72;5062393;28;20757;-48
2022/02/21 04:50:09;;;;;;;89.18;44.97;;;;;;;2.34;100.00;94836.31;5062036;28;20052;-46
2022/02/21 04:52:37;;;;;;;85.40;47.20;;;;;;;2.40;100.00;94840.72;5062292;28;20044;-48
2022/02/21 04:55:06;;;;;;;85.63;42.35;;;;;;;2.47;100.00;94841.59;5061254;28;20045;-47
2022/02/21 04:57:33;;;;;;;65.30;35.80;;;;;;;2.48;100.00;94832.91;5061860;28;20044;-47
2022/02/21 05:00:00;;;;;;;71.97;38.05;;;;;;;2.47;100.00;94826.16;5062049;28;20506;-45
2022/02/21 05:02:26;;;;;;;52.10;30.65;;;;;;;2.47;100.00;94836.44;5061379;28;20094;-45
2022/02/21 05:04:53;;;;;;;54.63;30.55;;;;;;;2.46;100.00;94834.84;5061524;28;20044;-46
2022/02/21 05:07:20;;;;;;;47.97;26.58;;;;;;;2.43;100.00;94830.09;5058604;28;20041;-46
2022/02/21 05:09:47;;;;;;;43.60;23.35;;;;;;;2.52;100.00;94827.41;5060632;28;20044;-46
2022/02/21 05:12:13;;;;;;;44.20;23.15;;;;;;;2.52;100.00;94823.06;5061863;28;20572;-48
2022/02/21 05:14:40;;;;;;;39.03;19.75;;;;;;;2.42;100.00;94815.63;5061185;28;20048;-47
2022/02/21 05:17:07;;;;;;;32.90;17.50;;;;;;;2.51;100.00;94820.69;5061468;28;20086;-46
2022/02/21 05:19:34;;;;;;;32.33;17.20;;;;;;;2.58;100.00;94831.84;5058367;28;20493;-47
2022/02/21 05:22:01;;;;;;;22.40;10.90;;;;;;;2.65;100.00;94825.00;5061002;28;20533;-46
2022/02/21 05:24:28;;;;;;;23.40;11.82;;;;;;;2.73;100.00;94824.06;5061423;28;20506;-46
2022/02/21 05:26:55;;;;;;;21.45;10.98;;;;;;;2.78;100.00;94814.81;5061023;28;20048;-46
2022/02/21 05:29:21;;;;;;;21.98;12.07;;;;;;;2.81;100.00;94822.19;5061551;28;20066;-50
2022/02/21 05:31:49;;;;;;;36.22;16.50;;;;;;;2.83;100.00;94809.94;5057544;28;20052;-49
2022/02/21 05:34:17;;;;;;;30.75;16.50;;;;;;;2.78;100.00;94819.97;5061206;28;20049;-46
2022/02/21 05:36:47;;;;;;;34.25;17.63;;;;;;;2.84;100.00;94814.09;5056975;28;20102;-50
2022/02/21 05:39:14;;;;;;;28.63;16.02;;;;;;;2.79;100.00;94808.72;5075164;28;20117;-45
2022/02/21 05:41:41;;;;;;;33.67;16.55;;;;;;;2.76;100.00;94808.28;5059083;28;20098;-46
2022/02/21 05:44:07;;;;;;;28.95;14.88;;;;;;;2.74;100.00;94795.59;5061215;28;20106;-46
2022/02/21 05:46:35;;;;;;;23.88;12.65;;;;;;;2.73;100.00;94813.78;5061263;28;20631;-46
2022/02/21 05:49:02;;;;;;;24.77;12.82;;;;;;;2.75;100.00;94797.19;5060959;28;20097;-46
2022/02/21 05:51:29;;;;;;;25.88;13.05;;;;;;;2.74;100.00;94805.88;5060249;28;20102;-46
2022/02/21 05:53:56;;;;;;;24.63;10.88;;;;;;;2.70;100.00;94799.50;5060975;28;20425;-46
2022/02/21 05:56:23;;;;;;;19.38;10.13;;;;;;;2.80;100.00;94815.44;5060910;28;20153;-49
2022/02/21 05:58:49;;;;;;;24.50;12.18;;;;;;;2.87;100.00;94808.59;5060326;28;20041;-46
2022/02/21 06:01:18;;;;;;;22.67;10.57;;;;;;;2.85;100.00;94802.81;5055595;28;20578;-46
2022/02/21 06:03:44;;;;;;;23.85;10.98;;;;;;;2.85;100.00;94802.81;5058759;28;20048;-48
2022/02/21 06:06:11;;;;;;;22.90;9.27;;;;;;;2.93;100.00;94804.47;5054920;28;21786;-48
2022/02/21 06:08:38;;;;;;;17.95;9.00;;;;;;;3.04;100.00;94800.63;5056544;28;20041;-47
2022/02/21 06:11:05;;;;;;;21.80;11.00;;;;;;;3.17;100.00;94795.59;5059342;28;20053;-46
2022/02/21 06:13:32;;;;;;;16.63;8.75;;;;;;;3.34;100.00;94785.03;5060867;28;20432;-48
2022/02/21 06:16:00;;;;;;;17.48;8.25;;;;;;;3.54;100.00;94790.31;5057940;28;20481;-47
2022/02/21 06:18:27;;;;;;;15.85;9.05;;;;;;;3.74;100.00;94795.59;5057427;28;20045;-46
2022/02/21 06:20:53;;;;;;;22.70;10.77;;;;;;;3.99;100.00;94783.84;5051126;28;20507;-48
2022/02/21 06:23:20;;;;;;;17.02;8.68;;;;;;;4.22;100.00;94787.94;5052876;28;20048;-48
2022/02/21 06:25:47;;;;;;;25.67;11.65;;;;;;;4.45;100.00;94777.31;5048878;28;20105;-47
2022/02/21 06:28:14;;;;;;;17.02;8.43;;;;;;;4.67;100.00;94770.22;5049887;28;20040;-47
2022/02/21 06:30:41;;;;;;;15.00;7.82;;;;;;;4.88;100.00;94752.97;5042513;28;20057;-52
2022/02/21 06:33:08;;;;;;;25.08;14.85;;;;;;;5.13;100.00;94761.75;5053222;28;20044;-48
2022/02/21 06:35:35;;;;;;;18.45;9.10;;;;;;;5.35;100.00;94751.22;5052715;28;20115;-49
2022/02/21 06:38:04;;;;;;;20.58;12.32;;;;;;;5.49;100.00;94755.38;5053459;28;20094;-47
2022/02/21 06:40:31;;;;;;;30.13;16.27;;;;;;;5.63;100.00;94768.25;5053328;28;20079;-46
2022/02/21 06:42:58;;;;;;;26.23;14.90;;;;;;;5.71;100.00;94762.88;5050701;28;20441;-47
2022/02/21 06:45:27;;;;;;;20.27;9.48;;;;;;;5.87;100.00;94756.47;5048798;28;20104;-47
2022/02/21 06:47:54;;;;;;;18.63;8.07;;;;;;;6.01;100.00;94750.28;5050027;28;20042;-49
2022/02/21 06:50:22;;;;;;;16.92;8.85;;;;;;;6.15;100.00;94751.06;5057897;28;20056;-47
2022/02/21 06:52:49;;;;;;;24.60;11.30;;;;;;;6.30;100.00;94751.59;5060624;28;20098;-47
2022/02/21 06:55:16;;;;;;;18.65;9.75;;;;;;;6.22;100.00;94725.97;5046902;28;20044;-52
2022/02/21 06:57:46;;;;;;;17.65;8.63;;;;;;;6.51;100.00;94739.34;5051423;28;20053;-47
2022/02/21 07:00:14;;;;;;;37.00;21.30;;;;;;;6.56;100.00;94736.94;5056029;28;20064;-49
2022/02/21 07:02:41;;;;;;;17.77;10.05;;;;;;;6.67;100.00;94731.09;5059346;28;20040;-48
2022/02/21 07:05:09;;;;;;;13.13;7.38;;;;;;;6.77;100.00;94733.25;5063829;28;20048;-50
2022/02/21 07:07:36;;;;;;;14.38;7.88;;;;;;;6.91;100.00;94735.72;5057501;28;20045;-50
2022/02/21 07:10:04;;;;;;;17.98;8.57;;;;;;;7.07;100.00;94727.44;5063306;28;20427;-47
2022/02/21 07:12:31;;;;;;;20.13;11.43;;;;;;;7.22;100.00;94727.13;5064745;28;20049;-47
2022/02/21 07:14:58;;;;;;;16.23;9.25;;;;;;;7.28;100.00;94713.31;5061789;28;20105;-47
2022/02/21 07:17:24;;;;;;;15.50;8.57;;;;;;;7.52;100.00;94713.50;5062503;28;20564;-48
2022/02/21 07:19:53;;;;;;;13.70;7.22;;;;;;;7.71;100.00;94716.94;5060782;28;20101;-46
2022/02/21 07:22:23;;;;;;;15.02;8.25;;;;;;;7.87;100.00;94710.34;5064294;28;20441;-48
2022/02/21 07:24:50;;;;;;;19.30;6.68;;;;;;;8.01;100.00;94720.38;5061784;28;20417;-49
2022/02/21 07:27:17;;;;;;;13.48;6.88;;;;;;;8.17;100.00;94711.19;5061286;28;20044;-48
2022/02/21 07:29:43;;;;;;;14.82;6.72;;;;;;;8.35;100.00;94712.97;5063391;28;20850;-48
2022/02/21 07:32:10;;;;;;;13.63;7.72;;;;;;;8.55;100.00;94707.56;5063034;28;20044;-47
2022/02/21 07:34:37;;;;;;;10.68;6.10;;;;;;;8.77;99.94;94700.06;5063509;28;20048;-49
2022/02/21 07:37:06;;;;;;;15.98;6.53;;;;;;;8.92;98.32;94698.84;5062572;28;20517;-48
2022/02/21 07:39:33;;;;;;;12.75;6.85;;;;;;;8.98;97.85;94690.97;5063103;28;20040;-50
2022/02/21 07:42:00;;;;;;;15.35;8.48;;;;;;;9.14;97.43;94693.91;5063322;28;20045;-48
2022/02/21 07:44:28;;;;;;;12.98;9.15;;;;;;;9.24;95.22;94688.94;5062567;28;20044;-46
2022/02/21 07:46:55;;;;;;;14.77;6.28;;;;;;;9.35;93.25;94677.75;5061448;28;20119;-46
2022/02/21 07:49:23;;;;;;;20.75;11.77;;;;;;;9.41;91.53;94685.66;5061951;28;20041;-46
2022/02/21 07:51:50;;;;;;;15.63;8.80;;;;;;;9.42;93.27;94684.63;5058042;28;20052;-45
2022/02/21 07:54:17;;;;;;;18.80;11.38;;;;;;;9.45;93.86;94679.00;5059825;28;20044;-46
2022/02/21 07:57:06;;;;;;;24.92;9.38;;;;;;;9.38;94.02;94674.72;5058489;28;20152;-50
2022/02/21 07:59:33;;;;;;;21.92;9.35;;;;;;;9.39;94.20;94675.50;5060924;28;20055;-48
2022/02/21 08:02:00;;;;;;;18.00;8.23;;;;;;;9.39;94.96;94670.28;5062066;28;20055;-45
2022/02/21 08:04:26;;;;;;;22.23;10.30;;;;;;;9.33;95.50;94664.19;5062322;28;20055;-45
2022/02/21 08:06:54;;;;;;;13.65;8.02;;;;;;;9.31;95.10;94648.03;5057256;28;20049;-45
2022/02/21 08:09:20;;;;;;;11.82;6.20;;;;;;;9.44;94.18;94654.81;5060849;28;20052;-45
2022/02/21 08:11:48;;;;;;;16.75;6.88;;;;;;;9.42;94.03;94654.25;5062932;28;20040;-47
2022/02/21 08:14:15;;;;;;;13.65;6.88;;;;;;;9.55;93.68;94637.63;5061848;28;20049;-45
2022/02/21 08:16:42;;;;;;;18.92;11.95;;;;;;;9.59;93.01;94643.16;5059854;28;20166;-45
2022/02/21 08:19:10;;;;;;;11.00;6.80;;;;;;;9.42;92.57;94636.06;5062944;28;20041;-46
2022/02/21 08:21:38;;;;;;;19.75;10.95;;;;;;;9.72;92.31;94633.28;5062996;28;20052;-47
2022/02/21 08:24:06;;;;;;;16.60;9.68;;;;;;;9.94;90.93;94630.84;5062048;28;20048;-50
2022/02/21 08:26:34;;;;;;;10.18;5.97;;;;;;;10.19;89.61;94631.53;5062323;28;20059;-48
2022/02/21 08:29:01;;;;;;;12.32;5.45;;;;;;;10.16;86.55;94632.03;5062222;28;20498;-45
2022/02/21 08:31:29;;;;;;;12.95;6.28;;;;;;;10.14;88.11;94614.81;5061776;28;20398;-47
2022/02/21 08:33:55;;;;;;;9.27;4.70;;;;;;;10.12;88.18;94632.47;5061759;28;20045;-46
2022/02/21 08:36:25;;;;;;;10.98;4.68;;;;;;;10.03;88.11;94620.88;5061626;28;20113;-46
2022/02/21 08:38:52;;;;;;;10.52;5.53;;;;;;;10.35;89.56;94615.19;5060510;28;20041;-46
2022/02/21 08:41:20;;;;;;;9.00;5.45;;;;;;;10.76;89.76;94610.66;5061569;28;20036;-45
2022/02/21 08:43:47;;;;;;;8.80;5.22;;;;;;;11.15;86.77;94605.50;5061509;28;20045;-45
2022/02/21 08:46:14;;;;;;;9.85;5.57;;;;;;;11.38;83.18;94606.31;5060872;28;20044;-45
2022/02/21 08:49:02;;;;;;;8.70;4.75;;;;;;;11.50;84.39;94604.41;5061296;28;20123;-48
2022/02/21 08:51:29;;;;;;;10.00;6.13;;;;;;;11.50;85.79;94599.19;5062029;28;20101;-48
2022/02/21 08:53:56;;;;;;;12.82;6.18;;;;;;;11.69;83.70;94598.91;5062177;28;20047;-47
2022/02/21 08:56:25;;;;;;;10.27;5.50;;;;;;;11.65;82.48;94585.56;5061788;28;20483;-50
2022/02/21 08:58:52;;;;;;;8.38;4.80;;;;;;;11.72;81.30;94586.16;5061479;28;20495;-46
2022/02/21 09:01:19;;;;;;;7.97;4.78;;;;;;;11.65;80.38;94591.56;5060916;28;20047;-47
2022/02/21 09:03:46;;;;;;;8.32;4.43;;;;;;;11.54;80.26;94586.44;5059711;28;20037;-46
2022/02/21 09:06:13;;;;;;;11.52;4.68;;;;;;;11.48;81.96;94575.16;5059154;28;20076;-46
2022/02/21 09:08:40;;;;;;;10.60;6.40;;;;;;;11.37;81.48;94568.25;5055304;28;20040;-47
2022/02/21 09:11:06;;;;;;;8.50;4.78;;;;;;;11.76;82.15;94568.19;5060926;28;20040;-47
2022/02/21 09:13:33;;;;;;;10.40;5.43;;;;;;;11.91;80.01;94563.16;5058117;28;22789;-47
2022/02/21 09:16:00;;;;;;;15.38;5.32;;;;;;;11.78;81.20;94547.88;5072707;28;20048;-47
2022/02/21 09:18:27;;;;;;;9.05;5.03;;;;;;;12.12;81.58;94545.88;5061064;28;20510;-46
2022/02/21 09:20:54;;;;;;;7.43;4.20;;;;;;;12.27;79.04;94547.84;5061385;28;20049;-46
2022/02/21 09:23:22;;;;;;;7.32;3.95;;;;;;;12.21;79.16;94551.47;5060268;28;20107;-46
2022/02/21 09:25:49;;;;;;;7.53;4.55;;;;;;;12.28;79.52;94546.81;5059600;28;20056;-45
2022/02/21 09:28:15;;;;;;;23.77;5.03;;;;;;;12.25;79.55;94531.63;5059581;28;20064;-47
2022/02/21 09:30:42;;;;;;;10.10;5.88;;;;;;;12.19;80.98;94532.63;5060196;28;20136;-46
2022/02/21 09:33:09;;;;;;;12.45;7.40;;;;;;;12.37;80.77;94534.88;5058478;28;20045;-49
2022/02/21 09:35:35;;;;;;;9.10;5.38;;;;;;;12.45;78.93;94530.25;5051227;28;20102;-46
2022/02/21 09:38:02;;;;;;;13.35;5.53;;;;;;;12.35;78.83;94526.50;5053706;28;20060;-46
2022/02/21 09:40:29;;;;;;;12.30;5.82;;;;;;;12.54;77.91;94518.28;5050371;28;20059;-46
2022/02/21 09:42:59;;;;;;;11.88;4.93;;;;;;;12.70;77.31;94514.75;5047940;28;20115;-47
2022/02/21 09:45:29;;;;;;;10.85;5.47;;;;;;;12.68;77.43;94514.22;5070113;28;21959;-46
2022/02/21 09:47:57;;;;;;;9.50;4.18;;;;;;;12.77;76.73;94512.69;5059459;28;20403;-46
2022/02/21 09:50:44;;;;;;;11.40;5.05;;;;;;;12.61;75.90;94516.25;5059033;28;20147;-46
2022/02/21 09:53:11;;;;;;;10.65;4.57;;;;;;;12.59;79.27;94505.28;5058644;28;20122;-46
2022/02/21 09:55:39;;;;;;;9.27;4.28;;;;;;;12.96;75.60;94504.44;5060335;28;20044;-47
2022/02/21 09:58:06;;;;;;;10.68;6.05;;;;;;;12.85;76.92;94497.59;5060124;28;20045;-48
2022/02/21 10:00:34;;;;;;;11.68;6.65;;;;;;;12.87;76.57;94500.72;5059932;28;20044;-47
2022/02/21 10:03:01;;;;;;;14.43;6.90;;;;;;;12.84;76.70;94485.53;5059845;28;20054;-46
2022/02/21 10:05:30;;;;;;;13.88;6.85;;;;;;;12.96;76.51;94486.13;5059880;28;20044;-48
2022/02/21 10:07:56;;;;;;;9.10;5.13;;;;;;;13.15;74.22;94482.06;5053682;28;20514;-48
2022/02/21 10:10:25;;;;;;;9.00;4.68;;;;;;;13.25;72.00;94470.06;5057936;28;20056;-47
2022/02/21 10:12:53;;;;;;;10.63;5.50;;;;;;;13.38;68.52;94469.63;5059252;28;20116;-48
2022/02/21 10:15:23;;;;;;;12.63;4.88;;;;;;;13.26;67.94;94467.19;5060375;28;20513;-47
2022/02/21 10:18:07;;;;;;;13.02;6.18;;;;;;;13.40;68.65;94446.59;5059994;28;20068;-46
2022/02/21 10:20:57;;;;;;;11.93;4.05;;;;;;;13.63;67.88;94449.78;5060116;28;20056;-48
2022/02/21 10:23:33;;;;;;;11.18;5.75;;;;;;;13.63;67.57;94440.13;5057733;28;20560;-49
2022/02/21 10:26:05;;;;;;;13.25;5.35;;;;;;;13.57;66.71;94426.22;5059808;28;20048;-47
2022/02/21 10:28:36;;;;;;;8.85;4.93;;;;;;;13.53;67.11;94419.94;5060234;28;20055;-49
2022/02/21 10:31:21;;;;;;;8.48;4.70;;;;;;;13.52;67.84;94423.63;5059623;28;20044;-47
2022/02/21 10:34:01;;;;;;;10.38;5.25;;;;;;;13.55;67.63;94412.63;5056178;28;20040;-46
2022/02/21 10:36:39;;;;;;;10.38;5.07;;;;;;;13.75;66.48;94411.06;5058404;28;20122;-49
2022/02/21 10:39:21;;;;;;;9.27;4.35;;;;;;;13.93;65.43;94407.16;5057754;28;20406;-48
2022/02/21 10:41:49;;;;;;;11.80;5.00;;;;;;;13.80;66.03;94386.75;5056377;28;20040;-48
2022/02/21 10:44:23;;;;;;;11.27;4.97;;;;;;;14.04;65.07;94392.22;5059844;28;20453;-49
2022/02/21 10:47:12;;;;;;;10.50;5.38;;;;;;;14.07;64.91;94383.88;5060845;28;20513;-45
2022/02/21 10:49:48;;;;;;;8.52;5.00;;;;;;;14.13;64.13;94380.19;5058962;28;20037;-46
2022/02/21 10:52:39;;;;;;;10.00;4.35;;;;;;;14.37;63.64;94371.75;5058374;28;20532;-49
2022/02/21 10:55:09;;;;;;;7.40;4.40;;;;;;;14.62;64.40;94366.50;5058470;28;20087;-47
2022/02/21 10:57:44;;;;;;;5.78;3.58;;;;;;;14.93;61.05;94366.38;5059405;28;20052;-47
2022/02/21 11:00:12;;;;;;;10.88;4.82;;;;;;;15.02;61.28;94349.03;5058124;28;20182;-47
2022/02/21 11:02:42;;;;;;;8.00;4.88;;;;;;;14.88;62.10;94348.06;5059317;28;20036;-46
2022/02/21 11:05:11;;;;;;;6.78;3.90;;;;;;;14.99;59.27;94339.06;5059125;28;20052;-48
2022/02/21 11:07:41;;;;;;;6.00;3.05;;;;;;;15.45;58.22;94344.06;5055415;28;20052;-47
2022/02/21 11:10:10;;;;;;;5.55;2.83;;;;;;;15.53;55.32;94341.91;5056754;28;20123;-48
2022/02/21 11:12:44;;;;;;;7.03;3.58;;;;;;;15.79;55.12;94335.44;5058256;28;23574;-47
2022/02/21 11:15:11;;;;;;;5.10;3.40;;;;;;;16.02;53.18;94317.38;5057372;28;20098;-47
2022/02/21 11:17:40;;;;;;;4.65;2.90;;;;;;;16.24;52.06;94325.56;5059916;28;20133;-50
2022/02/21 11:20:08;;;;;;;4.60;3.00;;;;;;;16.51;51.32;94313.72;5059359;28;20059;-47
2022/02/21 11:22:36;;;;;;;4.38;3.28;;;;;;;16.66;51.22;94299.63;5059513;28;20537;-49
2022/02/21 11:25:21;;;;;;;5.03;3.13;;;;;;;17.16;50.60;94296.63;5056741;28;20032;-46
2022/02/21 11:28:02;;;;;;;7.63;4.20;;;;;;;17.36;48.96;94285.81;5057927;28;20098;-48
2022/02/21 11:30:29;;;;;;;4.85;3.05;;;;;;;17.63;48.21;94273.00;5055520;28;20402;-49